Avondale, Ohio
Current Conditions -  °F | °C
As of 4:53 PM on Friday 28 Nov 2014 (Local Time) from KLUK Reporting Station
Clear Clear  
Wind Chill: -3°   Ceiling: Unl
Heat Index:   Visibility: 10mi
Dew Point: -9°   Wind: 9mph
Humidity: 48%   Direction: 160°SSE
Pressure: 30.24"   Gusts: NA
Location:  39.1532°N, 84.4859°W
Report Text: KLUK 282153Z 16008KT 10SM CLR 01/M09 A3024 RMK AO2 SLP243 T00111089
Loading
Personal Weather Stations






























Interactive Weather Map New forecast layout! Learn more

10-Day Weather Forecast

Advertisements
Track Severe Weather on mobile